Time;durP1;ratioP1;P1;durP2;ratioP2;P2;SDS_P1;SDS_P2;PMS_P1;PMS_P2;Temp;Humidity;BMP_temperature;BMP_pressure;BME280_temperature;BME280_humidity;BME280_pressure;Samples;Min_cycle;Max_cycle;Signal;HPM_P1;HPM_P2
2021/12/15 00:01:34;;;;;;;;;41.00;35.50;;;;;10.65;75.88;102401.09;5080477;28;45523;-77
2021/12/15 00:04:00;;;;;;;;;43.00;36.25;;;;;10.64;75.78;102402.00;5080123;28;47770;-75
2021/12/15 00:06:27;;;;;;;;;51.25;36.50;;;;;10.60;76.02;102389.94;5080321;28;46299;-76
2021/12/15 00:08:55;;;;;;;;;46.75;38.00;;;;;10.63;75.99;102390.69;5078161;28;45694;-77
2021/12/15 00:14:44;;;;;;;;;49.75;38.75;;;;;10.59;75.97;102383.84;5078233;28;45581;-76
2021/12/15 00:17:10;;;;;;;;;56.25;42.75;;;;;10.62;75.99;102388.13;5077548;28;46201;-77
2021/12/15 00:19:36;;;;;;;;;40.75;35.25;;;;;10.62;75.89;102381.13;5075470;28;45540;-77
2021/12/15 00:22:02;;;;;;;;;48.75;39.25;;;;;10.62;75.85;102382.88;5077512;28;45738;-76
2021/12/15 00:24:27;;;;;;;;;43.75;37.00;;;;;10.62;75.90;102382.88;5077085;28;46628;-76
2021/12/15 00:26:54;;;;;;;;;49.75;40.00;;;;;10.61;75.84;102379.41;5076985;28;45732;-76
2021/12/15 00:29:21;;;;;;;;;42.25;37.50;;;;;10.60;75.81;102385.56;5076944;28;45633;-76
2021/12/15 00:31:47;;;;;;;;;54.25;40.00;;;;;10.57;75.87;102383.09;5077051;28;45942;-76
2021/12/15 00:34:15;;;;;;;;;49.50;40.50;;;;;10.58;75.83;102381.31;5075824;28;45615;-77
2021/12/15 00:36:44;;;;;;;;;46.75;39.00;;;;;10.60;75.90;102380.31;5076674;28;46101;-75
2021/12/15 00:39:13;;;;;;;;;42.75;37.50;;;;;10.56;75.76;102377.91;5076504;27;45596;-76
2021/12/15 00:45:00;;;;;;;;;45.25;36.25;;;;;10.60;75.93;102379.47;5076621;28;45746;-74
2021/12/15 00:47:26;;;;;;;;;42.00;35.00;;;;;10.58;75.80;102387.38;5076809;28;46286;-74
2021/12/15 00:49:51;;;;;;;;;49.75;38.25;;;;;10.59;75.86;102383.84;5076698;28;45771;-75
2021/12/15 00:52:18;;;;;;;;;50.25;39.50;;;;;10.54;75.86;102375.34;5076200;28;45818;-76
2021/12/15 00:58:06;;;;;;;;;45.00;38.25;;;;;10.56;75.79;102377.91;5076206;28;46293;-74
2021/12/15 01:00:45;;;;;;;;;46.25;38.00;;;;;10.56;75.80;102381.38;5076606;28;45685;-75
2021/12/15 01:03:12;;;;;;;;;44.00;38.50;;;;;10.57;75.90;102379.63;5076866;28;45671;-76
2021/12/15 01:05:43;;;;;;;;;42.25;35.75;;;;;10.50;76.03;102368.53;5076089;28;46388;-76
2021/12/15 01:08:14;;;;;;;;;47.00;40.00;;;;;10.55;75.84;102381.44;5076058;28;46392;-77
2021/12/15 01:19:54;;;;;;;;;44.00;37.00;;;;;10.52;75.96;102379.81;5076346;28;46266;-75
2021/12/15 01:22:23;;;;;;;;;43.75;37.75;;;;;10.52;75.86;102379.81;5075904;28;45518;-74
2021/12/15 01:24:49;;;;;;;;;42.25;37.75;;;;;10.53;75.96;102376.25;5076169;28;45509;-76
2021/12/15 01:27:14;;;;;;;;;38.25;33.75;;;;;10.53;75.72;102376.25;5076130;28;46692;-76
2021/12/15 01:29:40;;;;;;;;;42.75;37.00;;;;;10.51;75.78;102372.88;5076255;28;45607;-75
2021/12/15 01:32:06;;;;;;;;;47.50;37.75;;;;;10.49;75.83;102375.53;5076294;28;45855;-76
2021/12/15 01:34:31;;;;;;;;;45.00;35.75;;;;;10.53;75.97;102368.38;5076042;28;45808;-76
2021/12/15 01:36:57;;;;;;;;;41.75;36.00;;;;;10.44;75.59;102359.16;5077294;28;46469;-77
2021/12/15 01:39:24;;;;;;;;;47.25;38.25;;;;;10.50;75.75;102369.38;5077817;28;46221;-77
2021/12/15 01:48:14;;;;;;;;;40.25;34.75;;;;;10.49;75.84;102370.31;5075857;28;46028;-78
2021/12/15 01:50:41;;;;;;;;;40.50;36.25;;;;;10.45;75.90;102363.50;5075977;28;46112;-76
2021/12/15 01:53:08;;;;;;;;;35.25;32.50;;;;;10.53;75.90;102376.25;5076267;28;46041;-77
2021/12/15 01:55:34;;;;;;;;;40.75;33.25;;;;;10.52;75.60;102374.56;5076687;28;45796;-77
2021/12/15 01:58:00;;;;;;;;;36.50;30.00;;;;;10.53;75.79;102373.63;5076759;28;45583;-76
2021/12/15 02:00:40;;;;;;;;;33.50;29.75;;;;;10.53;75.81;102379.72;5075464;28;46419;-75
2021/12/15 02:03:06;;;;;;;;;34.00;27.00;;;;;10.55;75.92;102384.06;5074495;28;45761;-75
2021/12/15 02:05:34;;;;;;;;;35.25;30.75;;;;;10.53;75.79;102390.22;5075800;28;45494;-76
2021/12/15 02:08:00;;;;;;;;;39.25;31.75;;;;;10.56;75.83;102384.00;5075362;28;46551;-76
2021/12/15 02:10:29;;;;;;;;;33.00;26.50;;;;;10.51;75.64;102380.72;5075282;28;47082;-76
2021/12/15 02:13:00;;;;;;;;;35.25;30.50;;;;;10.55;75.64;102389.28;5075734;28;45926;-77
2021/12/15 02:15:33;;;;;;;;;30.50;26.75;;;;;10.56;75.66;102393.63;5074149;28;45912;-76
2021/12/15 02:18:00;;;;;;;;;35.00;29.25;;;;;10.57;75.80;102398.81;5075521;28;45586;-77
2021/12/15 02:20:35;;;;;;;;;37.50;28.50;;;;;10.57;75.64;102400.59;5075153;28;46212;-76
2021/12/15 02:23:01;;;;;;;;;37.00;28.00;;;;;10.57;75.38;102395.34;5075755;27;45902;-77
2021/12/15 02:25:26;;;;;;;;;30.50;29.25;;;;;10.52;75.68;102398.16;5075139;28;45640;-77
2021/12/15 02:27:52;;;;;;;;;29.25;26.00;;;;;10.60;75.49;102405.69;5074746;28;46541;-77
2021/12/15 02:38:40;;;;;;;;;31.25;28.50;;;;;10.59;75.53;102402.19;5074886;28;46008;-76
2021/12/15 02:41:11;;;;;;;;;35.50;25.75;;;;;10.57;75.61;102397.97;5075359;28;46144;-77
2021/12/15 02:43:38;;;;;;;;;23.25;23.25;;;;;10.57;75.41;102393.56;5074850;28;46054;-77
2021/12/15 02:46:04;;;;;;;;;34.00;29.75;;;;;10.51;75.49;102386.81;5075212;27;46025;-76
2021/12/15 02:48:30;;;;;;;;;35.25;29.25;;;;;10.58;75.61;102397.06;5074743;28;47488;-75
2021/12/15 02:50:55;;;;;;;;;32.75;29.75;;;;;10.60;75.62;102400.44;5075021;28;45792;-77
2021/12/15 02:53:22;;;;;;;;;35.25;27.50;;;;;10.59;75.52;102391.72;5075066;28;45865;-75
2021/12/15 02:55:49;;;;;;;;;30.75;25.75;;;;;10.58;75.28;102390.00;5074603;28;45769;-76
2021/12/15 02:58:17;;;;;;;;;35.50;27.50;;;;;10.61;75.32;102391.66;5075028;28;46470;-77
2021/12/15 03:00:58;;;;;;;;;31.50;27.75;;;;;10.61;75.43;102396.91;5074463;28;47080;-76
2021/12/15 03:06:32;;;;;;;;;32.00;26.50;;;;;10.62;75.36;102396.84;5062870;28;45698;-77
2021/12/15 03:09:13;;;;;;;;;29.75;27.00;;;;;10.63;75.39;102397.69;5075809;28;45490;-77
2021/12/15 03:15:21;;;;;;;;;28.75;25.00;;;;;10.56;75.38;102383.16;5075778;28;45816;-76
2021/12/15 03:17:23;;;;;;;;;32.25;28.25;;;;;10.63;75.39;102397.69;5074214;28;45956;-77
2021/12/15 03:19:51;;;;;;;;;31.00;25.75;;;;;10.63;75.15;102395.94;5074357;28;46599;-76
2021/12/15 03:22:17;;;;;;;;;30.25;26.00;;;;;10.65;75.23;102394.09;5074200;28;47023;-76
2021/12/15 03:24:43;;;;;;;;;32.50;29.75;;;;;10.65;75.23;102391.47;5074583;27;45685;-76
2021/12/15 03:27:15;;;;;;;;;31.25;24.00;;;;;10.66;75.43;102401.03;5074290;27;45607;-77
2021/12/15 03:37:48;;;;;;;;;33.00;29.25;;;;;10.66;75.07;102398.41;5074180;28;45659;-76
2021/12/15 03:40:22;;;;;;;;;38.25;30.75;;;;;10.66;75.19;102398.41;5074093;28;47590;-76
2021/12/15 03:42:53;;;;;;;;;33.25;28.50;;;;;10.67;75.24;102404.50;5073796;28;45736;-77
2021/12/15 03:45:25;;;;;;;;;30.75;27.75;;;;;10.65;75.35;102407.19;5073630;28;45928;-76
2021/12/15 03:47:53;;;;;;;;;32.75;25.50;;;;;10.61;75.21;102396.91;5074445;27;45498;-77
2021/12/15 03:50:25;;;;;;;;;31.00;29.00;;;;;10.65;75.28;102401.09;5073770;28;47514;-77
2021/12/15 03:52:51;;;;;;;;;21.25;20.00;;;;;10.65;75.12;102404.56;5073981;28;47643;-76
2021/12/15 03:55:26;;;;;;;;;30.75;26.00;;;;;10.66;75.15;102410.66;5073771;28;45591;-76
2021/12/15 03:57:52;;;;;;;;;28.75;26.50;;;;;10.66;74.87;102406.28;5073806;28;45514;-76
2021/12/15 04:00:18;;;;;;;;;28.25;25.25;;;;;10.60;75.29;102398.66;5073686;28;46660;-76
2021/12/15 04:02:45;;;;;;;;;25.50;24.50;;;;;10.67;74.94;102408.00;5073735;28;46111;-75
2021/12/15 04:05:13;;;;;;;;;27.50;24.75;;;;;10.67;75.17;102413.22;5073662;28;45844;-77
2021/12/15 04:07:41;;;;;;;;;35.25;31.25;;;;;10.67;75.12;102401.88;5073913;27;45669;-76
2021/12/15 04:10:11;;;;;;;;;26.00;24.00;;;;;10.66;74.98;102402.81;5106003;27;46151;-76
2021/12/15 04:12:37;;;;;;;;;29.50;25.00;;;;;10.68;75.12;102404.47;5073561;28;46557;-77
2021/12/15 04:18:06;;;;;;;;;27.50;25.25;;;;;10.69;74.92;102402.69;5051205;28;45763;-76
2021/12/15 04:20:35;;;;;;;;;35.75;27.00;;;;;10.69;74.93;102407.94;5051302;28;47285;-76
2021/12/15 04:23:02;;;;;;;;;31.75;28.75;;;;;10.63;75.24;102395.94;5051298;28;46119;-77
2021/12/15 04:25:32;;;;;;;;;32.00;24.75;;;;;10.66;75.04;102400.19;5051188;28;45786;-76
2021/12/15 04:28:15;;;;;;;;;31.00;28.25;;;;;10.66;74.84;102394.94;5054748;28;45927;-76
2021/12/15 04:30:47;;;;;;;;;32.00;28.50;;;;;10.66;74.86;102394.94;5054701;28;47623;-77
2021/12/15 04:33:39;;;;;;;;;29.00;24.50;;;;;10.66;74.95;102397.56;5054691;28;46426;-75
2021/12/15 04:36:07;;;;;;;;;30.25;26.75;;;;;10.65;74.98;102395.84;5055144;28;45898;-77
2021/12/15 04:38:35;;;;;;;;;31.75;25.50;;;;;10.63;75.06;102398.56;5056613;28;46053;-76
2021/12/15 04:41:03;;;;;;;;;32.50;26.00;;;;;10.64;75.06;102400.22;5056192;28;47489;-76
2021/12/15 04:43:33;;;;;;;;;29.00;24.75;;;;;10.63;75.18;102401.19;5056509;28;46271;-76
2021/12/15 04:46:00;;;;;;;;;31.25;24.75;;;;;10.60;74.79;102392.56;5054935;28;45850;-77
2021/12/15 04:48:25;;;;;;;;;32.75;26.25;;;;;10.68;74.98;102406.22;5054712;28;45827;-76
2021/12/15 04:50:51;;;;;;;;;26.50;19.25;;;;;10.66;74.75;102402.81;5054542;28;45679;-76
2021/12/15 04:53:16;;;;;;;;;34.75;28.50;;;;;10.68;74.81;102411.47;5076532;28;46272;-76
2021/12/15 04:55:42;;;;;;;;;30.25;27.75;;;;;10.68;74.72;102416.72;5076451;28;45584;-76
2021/12/15 04:58:10;;;;;;;;;31.75;26.00;;;;;10.67;74.71;102407.13;5076595;28;45586;-76
2021/12/15 05:00:43;;;;;;;;;33.25;27.50;;;;;10.65;74.78;102408.94;5076766;28;46688;-76
2021/12/15 05:03:08;;;;;;;;;28.50;25.75;;;;;10.67;74.98;102409.75;5076713;28;46019;-76
2021/12/15 05:05:34;;;;;;;;;32.25;24.00;;;;;10.67;74.92;102412.38;5076309;28;45667;-76
2021/12/15 05:08:01;;;;;;;;;25.75;24.25;;;;;10.66;74.91;102418.53;5076288;28;45532;-76
2021/12/15 05:10:27;;;;;;;;;32.00;26.00;;;;;10.65;74.87;102414.19;5076110;28;47504;-76
2021/12/15 05:12:53;;;;;;;;;27.50;24.75;;;;;10.59;74.74;102415.31;5076022;28;47025;-76
2021/12/15 05:15:18;;;;;;;;;30.00;24.25;;;;;10.57;74.69;102414.53;5076496;28;45692;-76
2021/12/15 05:17:44;;;;;;;;;26.75;22.25;;;;;10.63;74.70;102430.00;5076185;28;45881;-75
2021/12/15 05:20:11;;;;;;;;;25.75;23.00;;;;;10.62;74.86;102433.53;5075915;28;46740;-77
2021/12/15 05:22:37;;;;;;;;;25.00;23.50;;;;;10.59;74.59;102424.94;5076379;28;45771;-76
2021/12/15 05:25:06;;;;;;;;;25.75;23.25;;;;;10.58;74.78;102424.09;5075791;28;45910;-76
2021/12/15 05:27:31;;;;;;;;;31.00;24.75;;;;;10.60;74.76;102427.50;5108397;27;45644;-76
2021/12/15 05:29:57;;;;;;;;;29.75;25.50;;;;;10.62;74.75;102432.69;5075973;28;46336;-77
2021/12/15 05:32:23;;;;;;;;;25.50;23.25;;;;;10.55;74.61;102428.59;5109296;27;46088;-76
2021/12/15 05:34:51;;;;;;;;;30.50;24.25;;;;;10.62;74.70;102436.16;5076025;28;45692;-77
2021/12/15 05:37:19;;;;;;;;;24.00;20.75;;;;;10.62;74.77;102444.03;5076178;28;45492;-77
2021/12/15 05:39:46;;;;;;;;;26.75;25.00;;;;;10.63;74.77;102442.25;5076639;28;46430;-76
2021/12/15 05:42:12;;;;;;;;;28.25;24.25;;;;;10.61;74.53;102441.47;5076477;28;45608;-75
2021/12/15 05:44:39;;;;;;;;;27.50;24.25;;;;;10.56;74.71;102438.19;5074402;28;45621;-77
2021/12/15 05:47:05;;;;;;;;;27.50;23.50;;;;;10.61;74.68;102449.31;5075930;28;45748;-76
2021/12/15 05:49:30;;;;;;;;;23.75;21.25;;;;;10.58;74.47;102445.03;5074611;28;45688;-76
2021/12/15 05:51:57;;;;;;;;;25.50;21.25;;;;;10.55;74.66;102439.09;5075569;28;46096;-75
2021/12/15 05:54:23;;;;;;;;;29.75;22.75;;;;;10.59;74.49;102452.00;5075501;28;45702;-77
2021/12/15 05:56:48;;;;;;;;;26.25;24.25;;;;;10.60;74.63;102452.84;5075501;28;45836;-76
2021/12/15 05:59:14;;;;;;;;;28.50;23.25;;;;;10.61;74.41;102451.94;5073873;28;47509;-76
2021/12/15 06:01:40;;;;;;;;;31.50;25.25;;;;;10.51;74.41;102439.22;5075233;27;46070;-75
2021/12/15 06:04:07;;;;;;;;;27.25;23.25;;;;;10.53;74.56;102442.63;5108302;27;46008;-78
2021/12/15 06:06:33;;;;;;;;;25.25;21.75;;;;;10.55;74.53;102447.81;5076530;28;45463;-76
2021/12/15 06:09:00;;;;;;;;;28.50;22.00;;;;;10.61;74.56;102457.19;5076895;28;45667;-76
2021/12/15 06:11:25;;;;;;;;;26.75;23.00;;;;;10.60;74.40;102453.72;5076619;28;47133;-77
2021/12/15 06:17:13;;;;;;;;;22.75;19.00;;;;;10.55;74.57;102453.06;5075151;28;45657;-76
2021/12/15 06:19:39;;;;;;;;;25.00;22.25;;;;;10.61;74.53;102471.16;5073800;28;46458;-77
2021/12/15 06:22:06;;;;;;;;;21.25;20.00;;;;;10.62;74.38;102474.63;5075097;28;47235;-76
2021/12/15 06:24:32;;;;;;;;;21.00;19.50;;;;;10.63;74.45;102479.81;5075466;28;45725;-76
2021/12/15 06:27:04;;;;;;;;;26.50;21.25;;;;;10.63;74.47;102474.56;5075174;28;45867;-77
2021/12/15 06:29:29;;;;;;;;;27.25;23.00;;;;;10.62;74.44;102477.25;5075308;28;46487;-77
2021/12/15 06:31:57;;;;;;;;;24.00;21.75;;;;;10.65;74.25;102477.97;5074696;28;47124;-77
2021/12/15 06:34:23;;;;;;;;;24.25;18.75;;;;;10.62;74.34;102472.00;5075154;28;45621;-77
2021/12/15 06:36:53;;;;;;;;;23.75;20.25;;;;;10.60;74.27;102473.81;5074697;28;45521;-77
2021/12/15 06:39:18;;;;;;;;;25.00;24.50;;;;;10.58;74.16;102475.69;5074581;28;47374;-77
2021/12/15 06:41:44;;;;;;;;;22.50;19.50;;;;;10.67;74.21;102481.38;5074871;28;46137;-77
2021/12/15 06:58:32;;;;;;;;;26.25;19.50;;;;;10.64;74.40;102497.22;5031964;28;45607;-77
2021/12/15 07:01:01;;;;;;;;;22.00;20.00;;;;;10.67;74.26;102496.25;5031878;28;46482;-77
2021/12/15 07:03:26;;;;;;;;;20.00;19.00;;;;;10.67;74.22;102496.25;5031660;28;47052;-76
2021/12/15 07:05:55;;;;;;;;;24.75;20.50;;;;;10.68;74.29;102506.69;5015144;28;45682;-76
2021/12/15 07:08:22;;;;;;;;;22.75;20.00;;;;;10.66;74.27;102505.88;5031717;28;45812;-77
2021/12/15 07:10:51;;;;;;;;;22.00;18.50;;;;;10.67;74.09;102506.75;5031918;28;47153;-77
2021/12/15 07:13:19;;;;;;;;;20.00;17.75;;;;;10.68;74.30;102505.84;5031537;28;46335;-76
2021/12/15 07:15:46;;;;;;;;;21.25;17.50;;;;;10.68;74.21;102504.06;5032024;28;45861;-77
2021/12/15 07:18:25;;;;;;;;;24.50;18.00;;;;;10.68;74.23;102508.44;5031694;28;45823;-77
2021/12/15 07:20:51;;;;;;;;;22.00;20.00;;;;;10.69;74.17;102520.66;5014686;28;48294;-77
2021/12/15 07:23:20;;;;;;;;;23.25;22.25;;;;;10.69;73.99;102511.00;5031465;28;46645;-74
2021/12/15 07:25:51;;;;;;;;;22.25;18.75;;;;;10.70;74.02;102514.47;5031759;28;45629;-77
2021/12/15 07:28:19;;;;;;;;;23.50;19.50;;;;;10.71;74.08;102521.41;5031598;28;45559;-76
2021/12/15 07:30:47;;;;;;;;;23.25;20.00;;;;;10.71;74.17;102532.75;5064415;28;45467;-77
2021/12/15 07:33:13;;;;;;;;;22.50;20.00;;;;;10.72;74.03;102523.97;5074131;28;46992;-76
2021/12/15 07:35:40;;;;;;;;;24.75;17.00;;;;;10.73;74.09;102525.69;5074031;28;45645;-78
2021/12/15 07:38:06;;;;;;;;;23.00;19.00;;;;;10.74;74.20;102526.56;5074449;28;45537;-76
2021/12/15 07:40:32;;;;;;;;;22.50;18.00;;;;;10.71;74.19;102530.13;5075064;28;46492;-76
2021/12/15 07:43:08;;;;;;;;;24.00;19.25;;;;;10.73;73.98;102533.56;5074418;28;45517;-78
2021/12/15 07:45:44;;;;;;;;;17.50;15.75;;;;;10.73;74.01;102544.06;5073963;28;45700;-76
2021/12/15 07:48:14;;;;;;;;;17.75;17.25;;;;;10.75;73.96;102546.59;5073897;28;45774;-77
2021/12/15 07:50:42;;;;;;;;;20.50;17.50;;;;;10.73;74.12;102540.56;5073971;28;46455;-75
2021/12/15 07:53:07;;;;;;;;;19.25;18.25;;;;;10.75;73.90;102543.97;5073624;28;47341;-77
2021/12/15 07:55:35;;;;;;;;;18.50;17.50;;;;;10.78;74.09;102543.84;5073562;28;45681;-77
2021/12/15 07:58:04;;;;;;;;;21.00;19.50;;;;;10.81;73.92;102554.19;5073848;28;45440;-77
2021/12/15 08:00:30;;;;;;;;;21.50;19.75;;;;;10.76;73.86;102543.06;5073981;28;46541;-77
2021/12/15 08:02:56;;;;;;;;;20.00;18.00;;;;;10.83;73.99;102555.00;5075825;28;47220;-77
2021/12/15 08:05:22;;;;;;;;;19.75;16.25;;;;;10.84;74.03;102552.34;5076834;28;45796;-77
2021/12/15 08:07:47;;;;;;;;;15.75;13.25;;;;;10.85;74.09;102556.63;5077021;28;45858;-77
2021/12/15 08:10:15;;;;;;;;;20.00;15.25;;;;;10.87;73.99;102552.19;5077271;28;46301;-77
2021/12/15 08:12:43;;;;;;;;;24.25;20.25;;;;;10.88;73.92;102555.66;5077012;28;47146;-76
2021/12/15 08:15:10;;;;;;;;;19.75;15.50;;;;;10.89;73.82;102549.50;5075641;28;45922;-78
2021/12/15 08:17:37;;;;;;;;;21.00;18.50;;;;;10.89;73.96;102557.38;5077093;28;45605;-77
2021/12/15 08:20:06;;;;;;;;;14.25;13.50;;;;;10.90;73.98;102553.84;5077026;28;46396;-76
2021/12/15 08:22:32;;;;;;;;;16.00;14.50;;;;;10.89;74.06;102563.47;5076786;28;46614;-76
2021/12/15 08:24:57;;;;;;;;;17.75;15.00;;;;;10.92;74.02;102562.47;5076945;28;45652;-75
2021/12/15 08:27:23;;;;;;;;;21.50;17.00;;;;;10.93;73.98;102564.19;5076747;28;45455;-74
2021/12/15 08:33:14;;;;;;;;;18.00;15.75;;;;;10.92;73.79;102552.00;5076935;28;45662;-76
2021/12/15 08:35:46;;;;;;;;;17.25;14.00;;;;;10.91;73.87;102548.53;5077058;28;45586;-76
2021/12/15 08:38:13;;;;;;;;;14.75;13.00;;;;;10.91;73.85;102555.53;5076702;27;45608;-76
2021/12/15 08:40:40;;;;;;;;;17.00;15.25;;;;;10.92;73.79;102560.72;5076769;28;47912;-77
2021/12/15 08:43:07;;;;;;;;;21.50;18.50;;;;;10.94;73.88;102561.53;5076795;28;47347;-77
2021/12/15 08:45:34;;;;;;;;;15.00;14.25;;;;;10.98;73.96;102569.25;5076403;28;45691;-78
2021/12/15 08:48:00;;;;;;;;;17.00;13.75;;;;;10.89;73.90;102563.47;5076825;28;45626;-76
2021/12/15 08:50:29;;;;;;;;;19.25;17.75;;;;;10.97;73.84;102565.78;5076748;28;46331;-77
2021/12/15 08:52:57;;;;;;;;;22.00;18.00;;;;;10.79;73.78;102535.94;5076721;28;46064;-76
2021/12/15 08:55:24;;;;;;;;;19.75;17.50;;;;;10.98;73.86;102558.75;5076740;28;45718;-76
2021/12/15 08:57:52;;;;;;;;;15.50;14.50;;;;;11.01;73.85;102563.91;5075271;28;45532;-77
2021/12/15 09:03:42;;;;;;;;;12.50;10.50;;;;;11.06;73.88;102573.28;5076606;28;45793;-79
2021/12/15 09:06:08;;;;;;;;;14.25;12.25;;;;;11.07;73.76;102577.59;5076880;28;45835;-79
2021/12/15 09:08:34;;;;;;;;;16.00;14.75;;;;;11.09;73.82;102578.38;5077005;28;45679;-78
2021/12/15 09:11:05;;;;;;;;;14.25;13.50;;;;;11.11;73.83;102580.94;5076751;27;47387;-78
2021/12/15 09:13:32;;;;;;;;;17.00;13.50;;;;;11.12;73.84;102578.25;5076167;28;46073;-77
2021/12/15 09:16:04;;;;;;;;;12.25;11.25;;;;;11.12;73.78;102580.03;5076404;28;45568;-78
2021/12/15 09:18:30;;;;;;;;;13.25;13.00;;;;;11.19;73.88;102586.72;5108876;27;45630;-78
2021/12/15 09:20:56;;;;;;;;;15.50;13.75;;;;;11.20;73.78;102581.41;5078179;28;45510;-78
2021/12/15 09:23:21;;;;;;;;;14.00;12.00;;;;;11.24;73.76;102577.72;5079712;28;45779;-79
2021/12/15 09:25:48;;;;;;;;;13.50;12.75;;;;;11.28;73.82;102586.34;5077332;28;45746;-78
2021/12/15 09:28:14;;;;;;;;;14.00;10.75;;;;;11.30;73.74;102587.13;5076074;28;45557;-78
2021/12/15 09:30:46;;;;;;;;;15.00;9.75;;;;;11.27;73.68;102577.63;5075916;28;45565;-77
2021/12/15 09:33:19;;;;;;;;;10.00;9.25;;;;;11.31;73.80;102592.31;5075897;27;45711;-77
2021/12/15 09:35:45;;;;;;;;;9.75;8.50;;;;;11.28;73.78;102579.31;5075736;28;45487;-77
2021/12/15 09:38:12;;;;;;;;;10.75;9.25;;;;;11.33;73.74;102597.50;5075950;28;45656;-77
2021/12/15 09:40:37;;;;;;;;;15.00;10.25;;;;;11.33;73.85;102594.88;5075706;28;46305;-77
2021/12/15 09:43:04;;;;;;;;;13.50;11.25;;;;;11.33;73.74;102595.75;5108447;27;45621;-77
2021/12/15 10:02:53;;;;;;;;;16.00;14.50;;;;;11.49;73.54;102584.56;5075403;28;45518;-78
2021/12/15 10:05:51;;;;;;;;;18.25;17.25;;;;;11.49;73.58;102582.81;5075316;28;46273;-78
2021/12/15 10:19:52;;;;;;;;;18.25;15.75;;;;;11.65;73.62;102598.75;5075067;28;45668;-77
2021/12/15 10:25:07;;;;;;;;;12.00;12.00;;;;;11.66;73.45;102593.41;5074281;28;46244;-78
2021/12/15 10:27:42;;;;;;;;;16.75;16.75;;;;;11.66;73.59;102582.91;5073451;28;46609;-78
2021/12/15 10:33:48;;;;;;;;;20.25;17.25;;;;;11.69;73.44;102589.81;5075318;28;45641;-77
2021/12/15 10:36:30;;;;;;;;;16.25;13.50;;;;;11.70;73.40;102599.41;5075060;28;47411;-77
2021/12/15 10:39:06;;;;;;;;;17.25;16.00;;;;;11.73;73.47;102600.13;5076655;27;46261;-77
2021/12/15 10:41:38;;;;;;;;;20.00;16.75;;;;;11.76;73.32;102591.28;5073961;28;45859;-78
2021/12/15 10:44:11;;;;;;;;;20.50;16.50;;;;;11.74;73.26;102586.09;5074672;28;45616;-77
2021/12/15 10:46:51;;;;;;;;;21.75;18.75;;;;;11.78;73.41;102592.91;5074840;28;46004;-77
2021/12/15 10:49:16;;;;;;;;;15.50;15.50;;;;;11.78;73.32;102595.53;5074240;28;45644;-78
2021/12/15 10:51:47;;;;;;;;;13.75;13.25;;;;;11.79;73.40;102588.50;5074440;28;45573;-78
2021/12/15 10:54:19;;;;;;;;;15.25;14.25;;;;;11.81;73.39;102583.19;5074927;28;45446;-77
2021/12/15 10:56:57;;;;;;;;;17.50;14.25;;;;;11.83;73.23;102583.97;5074598;28;46526;-77
2021/12/15 10:59:26;;;;;;;;;19.50;15.00;;;;;11.84;73.48;102586.53;5074540;28;46410;-78
2021/12/15 11:02:00;;;;;;;;;20.00;17.25;;;;;11.86;73.29;102589.09;5074812;28;45782;-78
2021/12/15 11:04:39;;;;;;;;;16.50;15.75;;;;;11.88;73.39;102580.22;5074744;28;46028;-78
2021/12/15 11:07:10;;;;;;;;;18.75;17.75;;;;;11.91;73.42;102584.50;5074529;28;46694;-77
2021/12/15 11:09:39;;;;;;;;;17.00;15.00;;;;;11.89;73.36;102584.56;5075574;28;46235;-77
2021/12/15 11:12:10;;;;;;;;;17.00;15.00;;;;;11.92;73.19;102579.19;5073473;28;45663;-76
2021/12/15 11:14:40;;;;;;;;;17.50;16.25;;;;;11.92;73.02;102573.91;5074432;28;45847;-78
2021/12/15 11:17:18;;;;;;;;;21.00;15.50;;;;;11.94;73.24;102577.31;5073922;28;47422;-78
2021/12/15 11:19:46;;;;;;;;;16.25;14.25;;;;;11.96;73.33;102582.50;5073863;27;47136;-77
2021/12/15 11:22:44;;;;;;;;;17.00;16.25;;;;;11.97;73.02;102581.59;5073926;28;45658;-78
2021/12/15 11:25:31;;;;;;;;;16.25;15.00;;;;;11.98;72.94;102575.41;5074491;28;45652;-80
2021/12/15 11:28:05;;;;;;;;;20.00;16.50;;;;;12.00;73.21;102578.81;5074382;28;46531;-77
2021/12/15 11:30:34;;;;;;;;;19.00;16.00;;;;;12.00;72.94;102577.03;5074080;28;45664;-78
2021/12/15 11:33:04;;;;;;;;;19.00;17.25;;;;;12.01;73.05;102570.88;5074276;28;45767;-77
2021/12/15 11:35:38;;;;;;;;;16.00;15.00;;;;;12.03;72.84;102574.28;5078861;28;45510;-80
2021/12/15 11:38:14;;;;;;;;;16.50;14.50;;;;;12.02;73.16;102563.84;5082077;28;45705;-81
2021/12/15 11:41:00;;;;;;;;;18.25;14.75;;;;;12.02;73.04;102567.31;5082055;28;46272;-78
2021/12/15 11:43:26;;;;;;;;;16.25;16.00;;;;;12.02;72.98;102561.22;5081964;28;45537;-76
2021/12/15 11:45:51;;;;;;;;;18.25;14.50;;;;;11.99;72.94;102559.56;5081516;28;45460;-77
2021/12/15 11:48:21;;;;;;;;;14.00;13.00;;;;;12.01;73.00;102555.09;5114993;27;45607;-74
2021/12/15 11:50:49;;;;;;;;;12.25;11.25;;;;;12.02;72.88;102554.19;5084314;28;46414;-76
2021/12/15 11:53:43;;;;;;;;;16.50;14.25;;;;;12.07;72.86;102564.47;5085460;28;45828;-74
2021/12/15 11:56:19;;;;;;;;;14.25;12.75;;;;;12.08;72.70;102563.56;5086115;28;45530;-77
2021/12/15 11:58:47;;;;;;;;;12.25;10.00;;;;;12.10;72.74;102570.44;5088689;28;47226;-75
2021/12/15 12:01:44;;;;;;;;;11.00;10.00;;;;;12.10;72.68;102561.69;5087988;28;45708;-75
2021/12/15 12:04:24;;;;;;;;;11.00;8.00;;;;;12.09;72.62;102563.47;5090348;27;45705;-74
2021/12/15 12:06:54;;;;;;;;;8.25;6.50;;;;;12.07;72.66;102553.97;5087338;28;45464;-76
2021/12/15 12:09:21;;;;;;;;;9.00;7.00;;;;;12.08;72.84;102553.06;5082279;28;45547;-76
2021/12/15 12:11:55;;;;;;;;;5.50;4.50;;;;;12.09;72.73;102560.84;5081123;28;46212;-77
2021/12/15 12:17:47;;;;;;;;;6.50;5.00;;;;;12.08;72.75;102551.28;5081224;28;45625;-75
2021/12/15 12:20:17;;;;;;;;;10.75;8.75;;;;;12.01;72.54;102541.13;5081910;28;46421;-75
2021/12/15 12:22:46;;;;;;;;;11.25;10.25;;;;;12.07;72.43;102548.72;5081192;28;46183;-76
2021/12/15 12:25:18;;;;;;;;;9.00;9.00;;;;;12.03;72.42;102541.91;5081043;28;45758;-76
2021/12/15 12:27:45;;;;;;;;;7.50;6.50;;;;;12.02;72.44;102541.06;5080655;28;45687;-75
2021/12/15 12:33:33;;;;;;;;;18.25;15.00;;;;;12.00;72.37;102542.03;5079915;28;46102;-75
2021/12/15 12:36:06;;;;;;;;;7.00;7.00;;;;;12.06;72.60;102544.38;5078822;28;45773;-75
2021/12/15 12:38:34;;;;;;;;;9.00;7.50;;;;;12.06;72.49;102549.63;5080128;28;45762;-76
2021/12/15 12:41:16;;;;;;;;;7.50;7.00;;;;;12.04;72.39;102541.81;5079763;28;46738;-75
2021/12/15 12:43:48;;;;;;;;;13.75;11.00;;;;;12.04;72.19;102538.34;5079422;28;47011;-76
2021/12/15 13:00:31;;;;;;;;;10.50;8.00;;;;;12.04;72.31;102536.56;5076119;28;45637;-75
2021/12/15 13:03:05;;;;;;;;;7.00;6.50;;;;;12.02;72.07;102535.81;5076354;28;45507;-75
2021/12/15 13:05:33;;;;;;;;;8.00;7.00;;;;;12.04;72.26;102541.81;5076160;28;46133;-74
2021/12/15 13:08:02;;;;;;;;;7.00;7.00;;;;;12.04;72.22;102535.72;5075731;28;45584;-75
2021/12/15 13:10:53;;;;;;;;;8.00;7.50;;;;;12.05;72.05;102534.78;5076266;28;45955;-74
2021/12/15 13:13:23;;;;;;;;;9.50;7.25;;;;;12.03;72.23;102523.53;5073887;28;45802;-75
2021/12/15 13:16:00;;;;;;;;;5.00;5.00;;;;;12.07;71.99;102530.31;5056693;28;46833;-77
2021/12/15 13:18:41;;;;;;;;;5.00;5.00;;;;;12.04;71.92;102533.06;5074173;28;45794;-75
2021/12/15 13:21:08;;;;;;;;;6.00;4.75;;;;;12.02;71.94;102527.06;5073883;28;45688;-77
2021/12/15 13:23:45;;;;;;;;;6.75;6.00;;;;;11.99;71.86;102519.31;5073763;28;47223;-76
2021/12/15 13:29:22;;;;;;;;;5.50;4.75;;;;;12.00;71.99;102516.63;5073640;28;45858;-81
2021/12/15 13:31:56;;;;;;;;;7.25;5.25;;;;;12.07;71.80;102525.06;5074065;28;45648;-80
2021/12/15 13:34:46;;;;;;;;;7.50;7.00;;;;;12.07;71.95;102517.19;5073768;28;46526;-78
2021/12/15 13:37:52;;;;;;;;;5.00;5.00;;;;;12.07;71.74;102525.06;5074370;28;45530;-77